sensor_id;sensor_type;location;lat;lon;timestamp;P1;durP1;ratioP1;P2;durP2;ratioP2
61009;SDS011;46897;55.340;86.082;2022-10-31T00:02:08;110.32;;;32.53;;
61009;SDS011;46897;55.340;86.082;2022-10-31T00:04:37;106.22;;;33.63;;
61009;SDS011;46897;55.340;86.082;2022-10-31T00:07:08;116.13;;;36.30;;
61009;SDS011;46897;55.340;86.082;2022-10-31T00:09:37;117.78;;;34.47;;
61009;SDS011;46897;55.340;86.082;2022-10-31T00:12:06;99.05;;;33.33;;
61009;SDS011;46897;55.340;86.082;2022-10-31T00:14:36;110.53;;;29.60;;
61009;SDS011;46897;55.340;86.082;2022-10-31T00:17:05;112.85;;;31.02;;
61009;SDS011;46897;55.340;86.082;2022-10-31T00:19:34;113.32;;;32.70;;
61009;SDS011;46897;55.340;86.082;2022-10-31T00:22:03;126.88;;;35.75;;
61009;SDS011;46897;55.340;86.082;2022-10-31T00:24:34;136.35;;;36.55;;
61009;SDS011;46897;55.340;86.082;2022-10-31T00:27:03;120.07;;;36.00;;
61009;SDS011;46897;55.340;86.082;2022-10-31T00:29:32;122.70;;;38.13;;
61009;SDS011;46897;55.340;86.082;2022-10-31T00:32:01;121.93;;;37.20;;
61009;SDS011;46897;55.340;86.082;2022-10-31T00:34:30;116.00;;;39.30;;
61009;SDS011;46897;55.340;86.082;2022-10-31T00:36:59;118.75;;;39.22;;
61009;SDS011;46897;55.340;86.082;2022-10-31T00:39:29;140.82;;;39.58;;
61009;SDS011;46897;55.340;86.082;2022-10-31T00:41:59;129.93;;;40.40;;
61009;SDS011;46897;55.340;86.082;2022-10-31T00:44:28;136.93;;;42.03;;
61009;SDS011;46897;55.340;86.082;2022-10-31T00:46:58;144.05;;;42.47;;
61009;SDS011;46897;55.340;86.082;2022-10-31T00:49:27;143.20;;;41.45;;
61009;SDS011;46897;55.340;86.082;2022-10-31T00:51:56;155.50;;;44.05;;
61009;SDS011;46897;55.340;86.082;2022-10-31T00:54:25;180.35;;;50.15;;
61009;SDS011;46897;55.340;86.082;2022-10-31T00:56:54;172.38;;;47.63;;
61009;SDS011;46897;55.340;86.082;2022-10-31T00:59:25;174.02;;;49.25;;
61009;SDS011;46897;55.340;86.082;2022-10-31T01:01:54;172.88;;;52.35;;
61009;SDS011;46897;55.340;86.082;2022-10-31T01:04:24;162.90;;;49.03;;
61009;SDS011;46897;55.340;86.082;2022-10-31T01:06:53;158.10;;;48.85;;
61009;SDS011;46897;55.340;86.082;2022-10-31T01:09:22;206.68;;;60.28;;
61009;SDS011;46897;55.340;86.082;2022-10-31T01:11:51;223.32;;;66.30;;
61009;SDS011;46897;55.340;86.082;2022-10-31T01:14:20;196.93;;;65.68;;
61009;SDS011;46897;55.340;86.082;2022-10-31T01:16:51;231.27;;;68.05;;
61009;SDS011;46897;55.340;86.082;2022-10-31T01:19:20;194.80;;;59.20;;
61009;SDS011;46897;55.340;86.082;2022-10-31T01:21:50;199.32;;;60.20;;
61009;SDS011;46897;55.340;86.082;2022-10-31T01:24:22;200.18;;;59.40;;
61009;SDS011;46897;55.340;86.082;2022-10-31T01:26:51;183.63;;;52.47;;
61009;SDS011;46897;55.340;86.082;2022-10-31T01:29:20;161.98;;;48.42;;
61009;SDS011;46897;55.340;86.082;2022-10-31T01:31:51;152.88;;;45.78;;
61009;SDS011;46897;55.340;86.082;2022-10-31T01:34:20;152.82;;;44.72;;
61009;SDS011;46897;55.340;86.082;2022-10-31T01:36:49;156.43;;;46.20;;
61009;SDS011;46897;55.340;86.082;2022-10-31T01:39:19;165.07;;;46.55;;
61009;SDS011;46897;55.340;86.082;2022-10-31T01:41:49;159.45;;;43.90;;
61009;SDS011;46897;55.340;86.082;2022-10-31T01:47:32;159.82;;;42.05;;
61009;SDS011;46897;55.340;86.082;2022-10-31T01:50:10;142.57;;;42.63;;
61009;SDS011;46897;55.340;86.082;2022-10-31T01:52:44;145.18;;;41.30;;
61009;SDS011;46897;55.340;86.082;2022-10-31T01:55:17;145.27;;;42.70;;
61009;SDS011;46897;55.340;86.082;2022-10-31T01:57:55;124.05;;;42.55;;
61009;SDS011;46897;55.340;86.082;2022-10-31T02:00:28;138.50;;;43.50;;
61009;SDS011;46897;55.340;86.082;2022-10-31T02:02:59;138.90;;;46.35;;
61009;SDS011;46897;55.340;86.082;2022-10-31T02:05:29;170.90;;;51.58;;
61009;SDS011;46897;55.340;86.082;2022-10-31T02:08:00;163.88;;;52.05;;
61009;SDS011;46897;55.340;86.082;2022-10-31T02:10:33;171.15;;;52.33;;
61009;SDS011;46897;55.340;86.082;2022-10-31T02:13:06;160.07;;;52.50;;
61009;SDS011;46897;55.340;86.082;2022-10-31T02:15:36;161.50;;;52.15;;
61009;SDS011;46897;55.340;86.082;2022-10-31T02:18:08;176.25;;;53.25;;
61009;SDS011;46897;55.340;86.082;2022-10-31T02:20:40;177.30;;;56.83;;
61009;SDS011;46897;55.340;86.082;2022-10-31T02:23:21;183.88;;;55.42;;
61009;SDS011;46897;55.340;86.082;2022-10-31T02:26:38;192.60;;;60.08;;
61009;SDS011;46897;55.340;86.082;2022-10-31T02:32:26;204.70;;;60.50;;
61009;SDS011;46897;55.340;86.082;2022-10-31T02:35:00;202.00;;;60.75;;
61009;SDS011;46897;55.340;86.082;2022-10-31T02:37:37;178.65;;;54.33;;
61009;SDS011;46897;55.340;86.082;2022-10-31T02:40:14;173.48;;;52.20;;
61009;SDS011;46897;55.340;86.082;2022-10-31T02:42:50;182.88;;;57.22;;
61009;SDS011;46897;55.340;86.082;2022-10-31T02:45:28;177.82;;;54.50;;
61009;SDS011;46897;55.340;86.082;2022-10-31T02:48:01;178.52;;;54.67;;
61009;SDS011;46897;55.340;86.082;2022-10-31T02:50:37;170.10;;;54.83;;
61009;SDS011;46897;55.340;86.082;2022-10-31T02:53:11;170.73;;;55.83;;
61009;SDS011;46897;55.340;86.082;2022-10-31T02:55:46;182.40;;;54.38;;
61009;SDS011;46897;55.340;86.082;2022-10-31T02:58:20;179.68;;;56.65;;
61009;SDS011;46897;55.340;86.082;2022-10-31T03:00:55;173.60;;;55.50;;
61009;SDS011;46897;55.340;86.082;2022-10-31T03:03:41;162.52;;;52.55;;
61009;SDS011;46897;55.340;86.082;2022-10-31T03:06:21;168.73;;;52.28;;
61009;SDS011;46897;55.340;86.082;2022-10-31T03:08:59;145.95;;;48.42;;
61009;SDS011;46897;55.340;86.082;2022-10-31T03:11:38;154.35;;;47.33;;
61009;SDS011;46897;55.340;86.082;2022-10-31T03:14:16;149.07;;;48.55;;
61009;SDS011;46897;55.340;86.082;2022-10-31T03:16:50;144.30;;;47.05;;
61009;SDS011;46897;55.340;86.082;2022-10-31T03:19:23;153.65;;;46.55;;
61009;SDS011;46897;55.340;86.082;2022-10-31T03:21:58;135.40;;;43.08;;
61009;SDS011;46897;55.340;86.082;2022-10-31T03:24:34;142.23;;;43.40;;
61009;SDS011;46897;55.340;86.082;2022-10-31T03:27:07;140.90;;;42.13;;
61009;SDS011;46897;55.340;86.082;2022-10-31T03:29:40;109.93;;;35.08;;
61009;SDS011;46897;55.340;86.082;2022-10-31T03:32:13;99.45;;;33.00;;
61009;SDS011;46897;55.340;86.082;2022-10-31T03:34:47;83.82;;;30.73;;
61009;SDS011;46897;55.340;86.082;2022-10-31T03:37:19;78.65;;;27.23;;
61009;SDS011;46897;55.340;86.082;2022-10-31T03:39:50;129.60;;;42.40;;
61009;SDS011;46897;55.340;86.082;2022-10-31T03:42:23;97.45;;;31.10;;
61009;SDS011;46897;55.340;86.082;2022-10-31T03:44:55;94.85;;;30.88;;
61009;SDS011;46897;55.340;86.082;2022-10-31T03:47:27;93.13;;;29.77;;
61009;SDS011;46897;55.340;86.082;2022-10-31T03:49:59;85.03;;;27.02;;
61009;SDS011;46897;55.340;86.082;2022-10-31T03:52:28;82.95;;;24.73;;
61009;SDS011;46897;55.340;86.082;2022-10-31T03:55:05;76.13;;;24.02;;
61009;SDS011;46897;55.340;86.082;2022-10-31T03:57:38;65.68;;;21.85;;
61009;SDS011;46897;55.340;86.082;2022-10-31T04:00:12;57.83;;;19.67;;
61009;SDS011;46897;55.340;86.082;2022-10-31T04:02:44;54.58;;;17.98;;
61009;SDS011;46897;55.340;86.082;2022-10-31T04:05:20;56.45;;;17.67;;
61009;SDS011;46897;55.340;86.082;2022-10-31T04:07:51;57.88;;;18.35;;
61009;SDS011;46897;55.340;86.082;2022-10-31T04:10:23;45.28;;;18.70;;
61009;SDS011;46897;55.340;86.082;2022-10-31T04:13:00;51.97;;;17.17;;
61009;SDS011;46897;55.340;86.082;2022-10-31T04:15:34;60.30;;;19.55;;
61009;SDS011;46897;55.340;86.082;2022-10-31T04:18:06;77.45;;;26.52;;
61009;SDS011;46897;55.340;86.082;2022-10-31T04:20:38;55.83;;;19.50;;
61009;SDS011;46897;55.340;86.082;2022-10-31T04:25:46;89.82;;;26.88;;
61009;SDS011;46897;55.340;86.082;2022-10-31T04:28:15;94.10;;;30.17;;
61009;SDS011;46897;55.340;86.082;2022-10-31T04:30:44;85.10;;;29.17;;
61009;SDS011;46897;55.340;86.082;2022-10-31T04:33:14;59.22;;;22.98;;
61009;SDS011;46897;55.340;86.082;2022-10-31T04:35:44;60.20;;;22.63;;
61009;SDS011;46897;55.340;86.082;2022-10-31T04:38:14;61.15;;;21.35;;
61009;SDS011;46897;55.340;86.082;2022-10-31T04:40:44;56.92;;;21.33;;
61009;SDS011;46897;55.340;86.082;2022-10-31T04:43:13;54.65;;;20.65;;
61009;SDS011;46897;55.340;86.082;2022-10-31T04:45:43;56.47;;;20.27;;
61009;SDS011;46897;55.340;86.082;2022-10-31T04:48:12;52.13;;;18.83;;
61009;SDS011;46897;55.340;86.082;2022-10-31T04:50:41;43.15;;;18.13;;
61009;SDS011;46897;55.340;86.082;2022-10-31T04:53:12;54.45;;;18.45;;
61009;SDS011;46897;55.340;86.082;2022-10-31T04:55:41;59.47;;;21.50;;
61009;SDS011;46897;55.340;86.082;2022-10-31T04:58:10;60.30;;;20.20;;
61009;SDS011;46897;55.340;86.082;2022-10-31T05:00:39;44.13;;;16.02;;
61009;SDS011;46897;55.340;86.082;2022-10-31T05:03:09;23.58;;;9.65;;
61009;SDS011;46897;55.340;86.082;2022-10-31T05:05:38;33.40;;;13.02;;
61009;SDS011;46897;55.340;86.082;2022-10-31T05:08:07;30.60;;;11.00;;
61009;SDS011;46897;55.340;86.082;2022-10-31T05:10:38;20.73;;;9.32;;
61009;SDS011;46897;55.340;86.082;2022-10-31T05:13:07;27.92;;;10.07;;
61009;SDS011;46897;55.340;86.082;2022-10-31T05:15:37;28.02;;;8.73;;
61009;SDS011;46897;55.340;86.082;2022-10-31T05:18:06;36.08;;;12.85;;
61009;SDS011;46897;55.340;86.082;2022-10-31T05:20:35;36.78;;;11.10;;
61009;SDS011;46897;55.340;86.082;2022-10-31T05:23:04;31.40;;;11.27;;
61009;SDS011;46897;55.340;86.082;2022-10-31T05:25:33;35.05;;;13.45;;
61009;SDS011;46897;55.340;86.082;2022-10-31T05:28:04;31.42;;;12.77;;
61009;SDS011;46897;55.340;86.082;2022-10-31T05:30:33;34.22;;;11.95;;
61009;SDS011;46897;55.340;86.082;2022-10-31T05:33:03;34.50;;;11.05;;
61009;SDS011;46897;55.340;86.082;2022-10-31T05:35:32;33.53;;;11.82;;
61009;SDS011;46897;55.340;86.082;2022-10-31T05:38:01;31.45;;;12.65;;
61009;SDS011;46897;55.340;86.082;2022-10-31T05:40:33;38.72;;;13.52;;
61009;SDS011;46897;55.340;86.082;2022-10-31T05:43:03;43.47;;;14.35;;
61009;SDS011;46897;55.340;86.082;2022-10-31T05:45:33;40.70;;;13.65;;
61009;SDS011;46897;55.340;86.082;2022-10-31T05:48:02;46.20;;;16.58;;
61009;SDS011;46897;55.340;86.082;2022-10-31T05:50:31;37.22;;;13.50;;
61009;SDS011;46897;55.340;86.082;2022-10-31T05:53:01;38.75;;;13.60;;
61009;SDS011;46897;55.340;86.082;2022-10-31T05:55:32;42.97;;;13.90;;
61009;SDS011;46897;55.340;86.082;2022-10-31T05:58:01;39.67;;;13.55;;
61009;SDS011;46897;55.340;86.082;2022-10-31T06:00:35;30.88;;;11.90;;
61009;SDS011;46897;55.340;86.082;2022-10-31T06:03:04;32.13;;;12.20;;
61009;SDS011;46897;55.340;86.082;2022-10-31T06:05:35;29.17;;;10.80;;
61009;SDS011;46897;55.340;86.082;2022-10-31T06:08:07;32.22;;;12.55;;
61009;SDS011;46897;55.340;86.082;2022-10-31T06:10:39;36.63;;;12.13;;
61009;SDS011;46897;55.340;86.082;2022-10-31T06:13:12;30.48;;;11.95;;
61009;SDS011;46897;55.340;86.082;2022-10-31T06:15:41;27.33;;;10.77;;
61009;SDS011;46897;55.340;86.082;2022-10-31T06:18:13;31.45;;;10.20;;
61009;SDS011;46897;55.340;86.082;2022-10-31T06:20:45;36.08;;;12.05;;
61009;SDS011;46897;55.340;86.082;2022-10-31T06:23:14;32.75;;;12.02;;
61009;SDS011;46897;55.340;86.082;2022-10-31T06:25:43;32.50;;;12.23;;
61009;SDS011;46897;55.340;86.082;2022-10-31T06:28:17;31.80;;;11.48;;
61009;SDS011;46897;55.340;86.082;2022-10-31T06:30:47;19.52;;;9.07;;
61009;SDS011;46897;55.340;86.082;2022-10-31T06:33:18;28.15;;;10.25;;
61009;SDS011;46897;55.340;86.082;2022-10-31T06:35:47;21.70;;;8.70;;
61009;SDS011;46897;55.340;86.082;2022-10-31T06:38:16;24.35;;;8.88;;
61009;SDS011;46897;55.340;86.082;2022-10-31T06:40:45;21.40;;;8.73;;
61009;SDS011;46897;55.340;86.082;2022-10-31T06:43:14;17.60;;;7.78;;
61009;SDS011;46897;55.340;86.082;2022-10-31T06:45:45;21.83;;;9.32;;
61009;SDS011;46897;55.340;86.082;2022-10-31T06:48:14;22.45;;;8.15;;
61009;SDS011;46897;55.340;86.082;2022-10-31T06:50:44;24.60;;;7.82;;
61009;SDS011;46897;55.340;86.082;2022-10-31T06:53:13;29.15;;;9.63;;
61009;SDS011;46897;55.340;86.082;2022-10-31T06:55:42;26.98;;;10.48;;
61009;SDS011;46897;55.340;86.082;2022-10-31T06:58:12;33.40;;;11.45;;
61009;SDS011;46897;55.340;86.082;2022-10-31T07:00:41;37.83;;;12.30;;
61009;SDS011;46897;55.340;86.082;2022-10-31T07:03:12;37.38;;;11.93;;
61009;SDS011;46897;55.340;86.082;2022-10-31T07:05:42;26.23;;;11.32;;
61009;SDS011;46897;55.340;86.082;2022-10-31T07:08:12;23.52;;;8.38;;
61009;SDS011;46897;55.340;86.082;2022-10-31T07:10:50;22.77;;;8.52;;
61009;SDS011;46897;55.340;86.082;2022-10-31T07:13:20;20.33;;;7.43;;
61009;SDS011;46897;55.340;86.082;2022-10-31T07:15:52;24.38;;;8.88;;
61009;SDS011;46897;55.340;86.082;2022-10-31T07:18:24;27.75;;;9.80;;
61009;SDS011;46897;55.340;86.082;2022-10-31T07:20:56;23.83;;;8.95;;
61009;SDS011;46897;55.340;86.082;2022-10-31T07:23:25;30.73;;;8.95;;
61009;SDS011;46897;55.340;86.082;2022-10-31T07:25:55;26.83;;;10.00;;
61009;SDS011;46897;55.340;86.082;2022-10-31T07:28:25;25.05;;;9.60;;
61009;SDS011;46897;55.340;86.082;2022-10-31T07:30:58;43.88;;;12.82;;
61009;SDS011;46897;55.340;86.082;2022-10-31T07:33:31;36.00;;;13.18;;
61009;SDS011;46897;55.340;86.082;2022-10-31T07:36:00;40.53;;;13.68;;
61009;SDS011;46897;55.340;86.082;2022-10-31T07:38:29;34.17;;;13.32;;
61009;SDS011;46897;55.340;86.082;2022-10-31T07:40:58;39.25;;;14.90;;
61009;SDS011;46897;55.340;86.082;2022-10-31T07:43:27;43.30;;;15.63;;
61009;SDS011;46897;55.340;86.082;2022-10-31T07:45:57;47.55;;;18.38;;
61009;SDS011;46897;55.340;86.082;2022-10-31T07:48:26;73.03;;;24.52;;
61009;SDS011;46897;55.340;86.082;2022-10-31T07:50:56;97.05;;;31.90;;
61009;SDS011;46897;55.340;86.082;2022-10-31T07:53:25;50.13;;;18.88;;
61009;SDS011;46897;55.340;86.082;2022-10-31T07:55:54;45.20;;;16.58;;
61009;SDS011;46897;55.340;86.082;2022-10-31T07:58:23;60.72;;;18.75;;
61009;SDS011;46897;55.340;86.082;2022-10-31T08:00:53;45.42;;;15.93;;
61009;SDS011;46897;55.340;86.082;2022-10-31T08:03:22;38.42;;;13.80;;
61009;SDS011;46897;55.340;86.082;2022-10-31T08:05:51;31.80;;;12.73;;
61009;SDS011;46897;55.340;86.082;2022-10-31T08:08:21;38.10;;;13.75;;
61009;SDS011;46897;55.340;86.082;2022-10-31T08:10:51;32.50;;;12.45;;
61009;SDS011;46897;55.340;86.082;2022-10-31T08:13:20;35.47;;;10.32;;
61009;SDS011;46897;55.340;86.082;2022-10-31T08:15:50;28.15;;;10.68;;
61009;SDS011;46897;55.340;86.082;2022-10-31T08:18:23;34.67;;;11.63;;
61009;SDS011;46897;55.340;86.082;2022-10-31T08:20:53;46.28;;;13.75;;
61009;SDS011;46897;55.340;86.082;2022-10-31T08:23:23;36.63;;;13.05;;
61009;SDS011;46897;55.340;86.082;2022-10-31T08:25:52;38.63;;;11.60;;
61009;SDS011;46897;55.340;86.082;2022-10-31T08:28:22;29.30;;;10.32;;
61009;SDS011;46897;55.340;86.082;2022-10-31T08:30:51;50.95;;;14.52;;
61009;SDS011;46897;55.340;86.082;2022-10-31T08:33:20;56.55;;;19.38;;
61009;SDS011;46897;55.340;86.082;2022-10-31T08:35:49;57.70;;;19.20;;
61009;SDS011;46897;55.340;86.082;2022-10-31T08:38:18;60.40;;;20.40;;
61009;SDS011;46897;55.340;86.082;2022-10-31T08:40:49;47.50;;;15.25;;
61009;SDS011;46897;55.340;86.082;2022-10-31T08:43:20;45.97;;;15.80;;
61009;SDS011;46897;55.340;86.082;2022-10-31T08:45:50;44.53;;;16.15;;
61009;SDS011;46897;55.340;86.082;2022-10-31T08:48:27;49.47;;;16.58;;
61009;SDS011;46897;55.340;86.082;2022-10-31T08:51:00;50.08;;;16.95;;
61009;SDS011;46897;55.340;86.082;2022-10-31T08:53:29;56.55;;;19.35;;
61009;SDS011;46897;55.340;86.082;2022-10-31T08:56:02;56.42;;;19.10;;
61009;SDS011;46897;55.340;86.082;2022-10-31T08:58:32;59.75;;;19.95;;
61009;SDS011;46897;55.340;86.082;2022-10-31T09:01:07;69.38;;;22.98;;
61009;SDS011;46897;55.340;86.082;2022-10-31T09:03:36;40.53;;;13.95;;
61009;SDS011;46897;55.340;86.082;2022-10-31T09:06:05;37.35;;;12.27;;
61009;SDS011;46897;55.340;86.082;2022-10-31T09:08:36;33.72;;;11.60;;
61009;SDS011;46897;55.340;86.082;2022-10-31T09:11:06;31.13;;;10.35;;
61009;SDS011;46897;55.340;86.082;2022-10-31T09:13:35;37.63;;;12.00;;
61009;SDS011;46897;55.340;86.082;2022-10-31T09:16:07;37.17;;;11.90;;
61009;SDS011;46897;55.340;86.082;2022-10-31T09:18:36;33.95;;;11.23;;
61009;SDS011;46897;55.340;86.082;2022-10-31T09:21:05;38.10;;;12.13;;
61009;SDS011;46897;55.340;86.082;2022-10-31T09:23:35;35.63;;;12.63;;
61009;SDS011;46897;55.340;86.082;2022-10-31T09:26:04;29.73;;;11.25;;
61009;SDS011;46897;55.340;86.082;2022-10-31T09:28:35;28.67;;;12.05;;
61009;SDS011;46897;55.340;86.082;2022-10-31T09:31:04;36.22;;;13.10;;
61009;SDS011;46897;55.340;86.082;2022-10-31T09:33:33;41.53;;;15.10;;
61009;SDS011;46897;55.340;86.082;2022-10-31T09:36:02;41.00;;;16.67;;
61009;SDS011;46897;55.340;86.082;2022-10-31T09:38:32;53.78;;;17.33;;
61009;SDS011;46897;55.340;86.082;2022-10-31T09:41:02;51.47;;;20.15;;
61009;SDS011;46897;55.340;86.082;2022-10-31T09:43:46;55.88;;;20.23;;
61009;SDS011;46897;55.340;86.082;2022-10-31T09:46:29;56.53;;;22.83;;
61009;SDS011;46897;55.340;86.082;2022-10-31T09:49:19;82.30;;;27.65;;
61009;SDS011;46897;55.340;86.082;2022-10-31T09:52:00;83.68;;;28.13;;
61009;SDS011;46897;55.340;86.082;2022-10-31T09:54:32;78.40;;;26.30;;
61009;SDS011;46897;55.340;86.082;2022-10-31T09:57:10;73.55;;;26.13;;
61009;SDS011;46897;55.340;86.082;2022-10-31T09:59:46;61.60;;;22.77;;
61009;SDS011;46897;55.340;86.082;2022-10-31T10:02:17;56.58;;;21.25;;
61009;SDS011;46897;55.340;86.082;2022-10-31T10:04:53;73.35;;;25.20;;
61009;SDS011;46897;55.340;86.082;2022-10-31T10:07:28;86.50;;;27.90;;
61009;SDS011;46897;55.340;86.082;2022-10-31T10:10:13;97.40;;;27.77;;
61009;SDS011;46897;55.340;86.082;2022-10-31T10:15:53;70.68;;;25.55;;
61009;SDS011;46897;55.340;86.082;2022-10-31T10:18:34;65.65;;;22.35;;
61009;SDS011;46897;55.340;86.082;2022-10-31T10:21:16;68.72;;;22.50;;
61009;SDS011;46897;55.340;86.082;2022-10-31T10:23:56;57.00;;;20.55;;
61009;SDS011;46897;55.340;86.082;2022-10-31T10:26:36;62.33;;;19.98;;
61009;SDS011;46897;55.340;86.082;2022-10-31T10:29:26;50.17;;;17.73;;
61009;SDS011;46897;55.340;86.082;2022-10-31T10:32:02;50.58;;;19.55;;
61009;SDS011;46897;55.340;86.082;2022-10-31T10:34:39;69.43;;;21.48;;
61009;SDS011;46897;55.340;86.082;2022-10-31T10:37:16;56.38;;;17.20;;
61009;SDS011;46897;55.340;86.082;2022-10-31T10:39:52;57.95;;;19.15;;
61009;SDS011;46897;55.340;86.082;2022-10-31T10:42:25;100.18;;;34.10;;
61009;SDS011;46897;55.340;86.082;2022-10-31T10:45:15;128.05;;;41.05;;
61009;SDS011;46897;55.340;86.082;2022-10-31T10:48:06;165.43;;;51.85;;
61009;SDS011;46897;55.340;86.082;2022-10-31T10:50:46;124.13;;;42.72;;
61009;SDS011;46897;55.340;86.082;2022-10-31T10:53:21;147.68;;;49.80;;
61009;SDS011;46897;55.340;86.082;2022-10-31T10:56:07;174.70;;;57.47;;
61009;SDS011;46897;55.340;86.082;2022-10-31T10:58:44;179.75;;;58.22;;
61009;SDS011;46897;55.340;86.082;2022-10-31T11:01:15;207.27;;;67.63;;
61009;SDS011;46897;55.340;86.082;2022-10-31T11:03:44;173.00;;;60.88;;
61009;SDS011;46897;55.340;86.082;2022-10-31T11:06:17;190.10;;;60.45;;
61009;SDS011;46897;55.340;86.082;2022-10-31T11:08:49;221.93;;;70.13;;
61009;SDS011;46897;55.340;86.082;2022-10-31T11:11:22;178.13;;;62.17;;
61009;SDS011;46897;55.340;86.082;2022-10-31T11:13:57;151.75;;;46.75;;
61009;SDS011;46897;55.340;86.082;2022-10-31T11:16:30;145.68;;;44.88;;
61009;SDS011;46897;55.340;86.082;2022-10-31T11:19:13;115.43;;;40.05;;
61009;SDS011;46897;55.340;86.082;2022-10-31T11:21:47;109.80;;;41.15;;
61009;SDS011;46897;55.340;86.082;2022-10-31T11:24:23;149.73;;;44.08;;
61009;SDS011;46897;55.340;86.082;2022-10-31T11:27:03;130.73;;;44.13;;
61009;SDS011;46897;55.340;86.082;2022-10-31T11:32:15;107.53;;;35.83;;
61009;SDS011;46897;55.340;86.082;2022-10-31T11:34:50;105.43;;;33.72;;
61009;SDS011;46897;55.340;86.082;2022-10-31T11:37:23;115.20;;;34.65;;
61009;SDS011;46897;55.340;86.082;2022-10-31T11:39:55;104.60;;;34.65;;
61009;SDS011;46897;55.340;86.082;2022-10-31T11:42:26;118.78;;;33.17;;
61009;SDS011;46897;55.340;86.082;2022-10-31T11:45:05;120.43;;;36.38;;
61009;SDS011;46897;55.340;86.082;2022-10-31T11:47:44;102.18;;;33.92;;
61009;SDS011;46897;55.340;86.082;2022-10-31T11:50:27;126.43;;;36.85;;
61009;SDS011;46897;55.340;86.082;2022-10-31T11:52:59;134.80;;;41.38;;
61009;SDS011;46897;55.340;86.082;2022-10-31T11:55:30;132.52;;;42.53;;
61009;SDS011;46897;55.340;86.082;2022-10-31T11:58:01;125.32;;;38.97;;
61009;SDS011;46897;55.340;86.082;2022-10-31T12:00:31;153.05;;;48.10;;
61009;SDS011;46897;55.340;86.082;2022-10-31T12:03:09;173.75;;;52.30;;
61009;SDS011;46897;55.340;86.082;2022-10-31T12:05:45;157.80;;;48.17;;
61009;SDS011;46897;55.340;86.082;2022-10-31T12:08:18;146.32;;;44.88;;
61009;SDS011;46897;55.340;86.082;2022-10-31T12:10:49;216.55;;;60.38;;
61009;SDS011;46897;55.340;86.082;2022-10-31T12:13:30;168.98;;;51.95;;
61009;SDS011;46897;55.340;86.082;2022-10-31T12:16:06;136.85;;;44.22;;
61009;SDS011;46897;55.340;86.082;2022-10-31T12:18:53;150.05;;;48.60;;
61009;SDS011;46897;55.340;86.082;2022-10-31T12:21:37;142.52;;;46.67;;
61009;SDS011;46897;55.340;86.082;2022-10-31T12:24:20;126.40;;;41.67;;
61009;SDS011;46897;55.340;86.082;2022-10-31T12:26:59;136.65;;;42.33;;
61009;SDS011;46897;55.340;86.082;2022-10-31T12:29:48;122.40;;;36.70;;
61009;SDS011;46897;55.340;86.082;2022-10-31T12:32:32;129.73;;;35.03;;
61009;SDS011;46897;55.340;86.082;2022-10-31T12:38:24;96.03;;;27.65;;
61009;SDS011;46897;55.340;86.082;2022-10-31T12:41:17;100.72;;;28.70;;
61009;SDS011;46897;55.340;86.082;2022-10-31T12:44:02;88.35;;;23.45;;
61009;SDS011;46897;55.340;86.082;2022-10-31T12:46:45;91.72;;;24.35;;
61009;SDS011;46897;55.340;86.082;2022-10-31T12:49:39;78.38;;;21.65;;
61009;SDS011;46897;55.340;86.082;2022-10-31T12:52:35;83.97;;;17.92;;
61009;SDS011;46897;55.340;86.082;2022-10-31T12:55:25;68.53;;;18.52;;
61009;SDS011;46897;55.340;86.082;2022-10-31T12:58:07;63.75;;;14.50;;
61009;SDS011;46897;55.340;86.082;2022-10-31T13:00:42;60.72;;;19.08;;
61009;SDS011;46897;55.340;86.082;2022-10-31T13:03:18;80.32;;;20.15;;
61009;SDS011;46897;55.340;86.082;2022-10-31T13:05:54;75.45;;;21.60;;
61009;SDS011;46897;55.340;86.082;2022-10-31T13:08:33;72.53;;;22.77;;
61009;SDS011;46897;55.340;86.082;2022-10-31T13:11:12;63.13;;;19.10;;
61009;SDS011;46897;55.340;86.082;2022-10-31T13:13:47;79.63;;;20.70;;
61009;SDS011;46897;55.340;86.082;2022-10-31T13:16:21;104.10;;;22.58;;
61009;SDS011;46897;55.340;86.082;2022-10-31T13:18:54;81.45;;;22.02;;
61009;SDS011;46897;55.340;86.082;2022-10-31T13:21:27;109.75;;;29.13;;
61009;SDS011;46897;55.340;86.082;2022-10-31T13:24:03;126.35;;;35.05;;
61009;SDS011;46897;55.340;86.082;2022-10-31T13:29:09;87.43;;;27.23;;
61009;SDS011;46897;55.340;86.082;2022-10-31T13:31:45;107.20;;;33.10;;
61009;SDS011;46897;55.340;86.082;2022-10-31T13:34:18;118.88;;;34.25;;
61009;SDS011;46897;55.340;86.082;2022-10-31T13:36:55;137.45;;;41.22;;
61009;SDS011;46897;55.340;86.082;2022-10-31T13:39:36;180.50;;;49.55;;
61009;SDS011;46897;55.340;86.082;2022-10-31T13:42:17;173.68;;;52.83;;
61009;SDS011;46897;55.340;86.082;2022-10-31T13:44:56;160.98;;;44.72;;
61009;SDS011;46897;55.340;86.082;2022-10-31T13:50:20;149.20;;;45.30;;
61009;SDS011;46897;55.340;86.082;2022-10-31T13:52:51;137.20;;;40.25;;
61009;SDS011;46897;55.340;86.082;2022-10-31T13:55:37;125.07;;;39.33;;
61009;SDS011;46897;55.340;86.082;2022-10-31T13:58:19;142.27;;;39.08;;
61009;SDS011;46897;55.340;86.082;2022-10-31T14:01:03;134.27;;;36.92;;
61009;SDS011;46897;55.340;86.082;2022-10-31T14:03:46;128.18;;;34.90;;
61009;SDS011;46897;55.340;86.082;2022-10-31T14:06:41;112.13;;;33.38;;
61009;SDS011;46897;55.340;86.082;2022-10-31T14:09:21;107.03;;;31.20;;
61009;SDS011;46897;55.340;86.082;2022-10-31T14:11:57;126.93;;;37.45;;
61009;SDS011;46897;55.340;86.082;2022-10-31T14:14:32;95.18;;;31.35;;
61009;SDS011;46897;55.340;86.082;2022-10-31T14:17:22;87.63;;;27.58;;
61009;SDS011;46897;55.340;86.082;2022-10-31T14:22:53;156.50;;;47.20;;
61009;SDS011;46897;55.340;86.082;2022-10-31T14:25:26;177.15;;;49.17;;
61009;SDS011;46897;55.340;86.082;2022-10-31T14:27:59;181.23;;;49.72;;
61009;SDS011;46897;55.340;86.082;2022-10-31T14:30:32;158.43;;;46.92;;
61009;SDS011;46897;55.340;86.082;2022-10-31T14:33:02;154.15;;;43.90;;
61009;SDS011;46897;55.340;86.082;2022-10-31T14:35:45;109.93;;;33.72;;
61009;SDS011;46897;55.340;86.082;2022-10-31T14:38:24;113.57;;;36.35;;
61009;SDS011;46897;55.340;86.082;2022-10-31T14:41:16;112.60;;;32.55;;
61009;SDS011;46897;55.340;86.082;2022-10-31T14:44:05;100.25;;;29.52;;
61009;SDS011;46897;55.340;86.082;2022-10-31T14:46:49;100.60;;;28.98;;
61009;SDS011;46897;55.340;86.082;2022-10-31T14:49:31;111.63;;;33.17;;
61009;SDS011;46897;55.340;86.082;2022-10-31T14:52:13;144.90;;;37.60;;
61009;SDS011;46897;55.340;86.082;2022-10-31T14:54:46;150.57;;;41.25;;
61009;SDS011;46897;55.340;86.082;2022-10-31T14:57:20;132.40;;;41.58;;
61009;SDS011;46897;55.340;86.082;2022-10-31T14:59:58;145.48;;;41.45;;
61009;SDS011;46897;55.340;86.082;2022-10-31T15:02:36;147.52;;;42.28;;
61009;SDS011;46897;55.340;86.082;2022-10-31T15:05:15;127.72;;;38.90;;
61009;SDS011;46897;55.340;86.082;2022-10-31T15:07:48;128.10;;;37.40;;